McKenzie Bridge, Oregon
Current Conditions -  °F | °C
As of 3:35 AM on Sunday 21 Dec 2014 (Local Time) from KBDN Reporting Station
Light Rain Light Rain  
Wind Chill: 45°   Ceiling: Unl
Heat Index: 48°   Visibility: 10mi
Dew Point: 45°   Wind: 8mph
Humidity: 87%   Direction: 220°SW
Pressure: 29.88"   Gusts: NA
Location:  44.2049°N, 122.069°W
Report Text: KBDN 211135Z AUTO 22007KT 10SM -RA FEW037 09/07 A2988 RMK AO2
Loading
Personal Weather Stations






























Interactive Weather Map New forecast layout! Learn more

10-Day Weather Forecast

Advertisements
Track Severe Weather on mobile